Share

Buffalo, SD

1:38 AM MDT on April 24, 2014 (GMT -0600)
Hettinger Municipal (KHEI) Elev 2703 ft | 46.01 °N, 102.66 °W | Change Station

Current weather conditions updated 45 minutes ago

Clear
Clear
33 °F
Feels Like 29 °F
N
5
Wind Variable Wind from WNW
Sunrise 5:53 AM
Sunset 7:52 PM
Moon Waning Crescent

Today is forecast to be Warmer than yesterday.

Pressure 29.80 in
Visibility 10.0 miles
Clouds Clear
Windchill 29 °F
Dew Point 25 °F
Humidity 72%
Rainfall 0.00 in
Snow Depth Not available.
UV 0 out of 16
Pollen 8.10 out of 12
Air Quality Not available.
Flu Activity Sporadic
METAR KHEI 240653Z AUTO 30004KT 10SM CLR 01/M04 A2977 RMK AO2 SLP090 T00061039 401440000

More Conditions Fewer Conditions

Pressure 29.80 in
Visibility 10.0 miles
Clouds Clear
Windchill 29 °F
Dew Point 25 °F
Humidity 72%
Rainfall 0.00 in
Snow Depth Not available.
UV 0 out of 16
Pollen 8.10 out of 12
Air Quality Not available.
Flu Activity Sporadic
METAR KHEI 240653Z AUTO 30004KT 10SM CLR 01/M04 A2977 RMK AO2 SLP090 T00061039 401440000

More Conditions Fewer Conditions

10-Day Weather Forecast

Almanac

Astronomy

Apr. 24, 2014 Rise Set
Actual Time 5:53 AM MDT 7:52 PM MDT
Civil Twilight 5:21 AM MDT 8:24 PM MDT
Nautical Twilight 4:42 AM MDT 9:03 PM MDT
Astronomical Twilight 3:59 AM MDT 9:47 PM MDT
Moon 3:21 AM MDT 2:57 PM MDT
Length of Visible Light 15h 02m
Length of Day
13h 58m
Tomorrow will be 2m 55s longer.
Waning Crescent, 28% of the Moon is Illuminated
Today
Waning Crescent
Apr 29
New
May 6
First Quarter
May 14
Full
May 21
Last Quarter

Today's Extremes

State Highs State Lows

Community

  • Stacked
    Stacked
  • clouds approaching Red Sox Nation
    clouds approaching Red Sox Nation
  • Balance
    Balance
  • Nestled In
    Nestled In
  • Stunning Sunrise
    Stunning Sunrise

WunderPhotos

Upload Photos

1,704,571 photos uploaded!

WunderBlogs® & News

Nearby

Snow Depth

Station Depth Elevation
North Rapid Creek 10 in 6130 ft
Blind Park 11 in 6890 ft

Coastal Water Temperatures

Place Temperature
No Stations Reporting

Earthquake Activity

City Distance Mag. Time & Date
No recent earthquake activity has been reported nearby.
Minimum magnitude displayed is 2.5.

Nearby Weather Stations

There are no personal weather stations in this area.

What do you think?

We're not finished. Please let us know what you like, what you don't like, and what you are still missing.